createdAt,value
2018-12-08T00:00:12.010Z,60.80
2018-12-08T00:01:12.000Z,52.00
2018-12-08T00:02:11.989Z,43.00
2018-12-08T00:03:11.976Z,1.30
2018-12-08T00:04:12.681Z,2.00
2018-12-08T00:05:11.954Z,0.80
2018-12-08T00:06:11.966Z,0.80
2018-12-08T00:07:11.932Z,2.10
2018-12-08T00:08:11.922Z,1.30
2018-12-08T00:09:11.986Z,1.00
2018-12-08T00:10:11.898Z,1.60
2018-12-08T00:11:11.886Z,1.60
2018-12-08T00:12:11.875Z,2.00
2018-12-08T00:13:11.865Z,0.90
2018-12-08T00:14:11.864Z,2.10
2018-12-08T00:15:11.847Z,0.90
2018-12-08T00:16:11.834Z,1.60
2018-12-08T00:17:11.819Z,1.10
2018-12-08T00:18:11.812Z,1.30
2018-12-08T00:19:11.811Z,1.60
2018-12-08T00:20:11.792Z,1.10
2018-12-08T00:21:11.777Z,1.20
2018-12-08T00:22:11.763Z,1.40
2018-12-08T00:23:11.751Z,1.90
2018-12-08T00:24:11.774Z,2.20
2018-12-08T00:25:11.728Z,2.40
2018-12-08T00:26:11.718Z,1.10
2018-12-08T00:27:11.707Z,1.50
2018-12-08T00:28:11.695Z,1.30
2018-12-08T00:29:11.723Z,1.30
2018-12-08T00:30:11.672Z,1.90
2018-12-08T00:31:11.662Z,2.20
2018-12-08T00:32:11.657Z,1.60
2018-12-08T00:33:11.637Z,1.40
2018-12-08T00:34:11.627Z,1.00
2018-12-08T00:35:11.695Z,1.80
2018-12-08T00:36:11.605Z,1.60
2018-12-08T00:37:12.181Z,2.60
2018-12-08T00:38:11.582Z,1.70
2018-12-08T00:39:11.572Z,2.10
2018-12-08T00:40:11.572Z,1.40
2018-12-08T00:41:11.548Z,1.50
2018-12-08T00:42:11.537Z,2.10
2018-12-08T00:43:11.532Z,1.30
2018-12-08T00:44:11.513Z,2.10
2018-12-08T00:45:11.514Z,1.10
2018-12-08T00:46:11.492Z,3.10
2018-12-08T00:47:11.481Z,2.60
2018-12-08T00:48:11.469Z,6.30
2018-12-08T00:49:11.461Z,3.20
2018-12-08T00:50:11.457Z,3.10
2018-12-08T00:51:11.435Z,4.10
2018-12-08T00:52:11.422Z,3.30
2018-12-08T00:53:11.412Z,3.50
2018-12-08T00:54:11.414Z,2.80
2018-12-08T00:55:11.401Z,4.40
2018-12-08T00:56:11.377Z,5.50
2018-12-08T00:57:11.366Z,4.50
2018-12-08T00:58:11.355Z,4.80
2018-12-08T00:59:11.344Z,5.20
2018-12-08T01:00:12.187Z,3.70
2018-12-08T01:01:11.321Z,2.80
2018-12-08T01:02:11.310Z,4.20
2018-12-08T01:03:11.298Z,2.80
2018-12-08T01:04:11.286Z,4.20
2018-12-08T01:05:11.310Z,2.90
2018-12-08T01:06:11.268Z,3.50
2018-12-08T01:07:11.253Z,3.70
2018-12-08T01:08:11.242Z,5.10
2018-12-08T01:09:11.230Z,3.10
2018-12-08T01:10:11.219Z,6.00
2018-12-08T01:11:11.218Z,5.30
2018-12-08T01:12:11.196Z,6.50
2018-12-08T01:13:11.185Z,7.90
2018-12-08T01:14:11.174Z,6.00
2018-12-08T01:15:11.163Z,5.50
2018-12-08T01:16:11.162Z,4.70
2018-12-08T01:17:11.140Z,4.20
2018-12-08T01:18:11.130Z,6.60
2018-12-08T01:19:11.117Z,5.10
2018-12-08T01:20:11.108Z,4.20
2018-12-08T01:21:11.105Z,4.70
2018-12-08T01:22:11.084Z,4.60
2018-12-08T01:23:11.077Z,5.00
2018-12-08T01:24:11.063Z,5.30
2018-12-08T01:25:11.052Z,5.50
2018-12-08T01:26:11.049Z,4.30
2018-12-08T01:27:11.028Z,3.10
2018-12-08T01:28:11.026Z,5.70
2018-12-08T01:29:11.005Z,6.90
2018-12-08T01:30:10.993Z,8.10
2018-12-08T01:31:10.995Z,5.00
2018-12-08T01:32:10.971Z,8.30
2018-12-08T01:33:10.959Z,6.90
2018-12-08T01:34:10.947Z,7.30
2018-12-08T01:35:10.937Z,6.40
2018-12-08T01:36:10.939Z,5.10
2018-12-08T01:37:11.898Z,6.50
2018-12-08T01:38:10.907Z,7.00
2018-12-08T01:39:10.895Z,6.10
2018-12-08T01:40:10.882Z,7.00
2018-12-08T01:41:10.882Z,10.90
2018-12-08T01:42:10.860Z,7.70
2018-12-08T01:43:10.849Z,7.90
2018-12-08T01:44:10.836Z,6.80
2018-12-08T01:45:10.828Z,4.00
2018-12-08T01:46:10.834Z,7.90
2018-12-08T01:47:10.802Z,5.40
2018-12-08T01:48:10.791Z,7.10
2018-12-08T01:49:10.781Z,7.50
2018-12-08T01:50:10.774Z,5.00
2018-12-08T01:51:10.788Z,9.40
2018-12-08T01:52:10.748Z,5.90
2018-12-08T01:53:10.735Z,6.40
2018-12-08T01:54:10.723Z,7.70
2018-12-08T01:55:10.714Z,7.90
2018-12-08T01:56:10.703Z,6.70
2018-12-08T01:57:10.706Z,4.60
2018-12-08T01:58:10.679Z,5.90
2018-12-08T01:59:10.666Z,6.10
2018-12-08T02:00:10.655Z,9.70
2018-12-08T02:01:10.645Z,5.80
2018-12-08T02:02:10.649Z,6.90
2018-12-08T02:03:10.622Z,7.30
2018-12-08T02:04:10.611Z,11.10
2018-12-08T02:05:10.599Z,8.10
2018-12-08T02:06:10.587Z,6.70
2018-12-08T02:07:10.592Z,7.70
2018-12-08T02:08:10.564Z,7.90
2018-12-08T02:09:10.553Z,10.40
2018-12-08T02:10:10.541Z,8.50
2018-12-08T02:11:10.533Z,7.30
2018-12-08T02:12:10.531Z,7.60
2018-12-08T02:13:10.510Z,8.20
2018-12-08T02:14:10.496Z,6.50
2018-12-08T02:15:10.484Z,8.40
2018-12-08T02:16:10.473Z,7.90
2018-12-08T02:17:10.476Z,6.80
2018-12-08T02:18:10.451Z,8.60
2018-12-08T02:19:10.438Z,12.00
2018-12-08T02:20:10.426Z,7.80
2018-12-08T02:21:10.415Z,7.40
2018-12-08T02:22:10.444Z,7.00
2018-12-08T02:23:10.395Z,8.10
2018-12-08T02:24:10.386Z,8.70
2018-12-08T02:25:10.373Z,8.20
2018-12-08T02:26:10.359Z,7.50
2018-12-08T02:27:10.348Z,7.80
2018-12-08T02:28:10.349Z,7.90
2018-12-08T02:29:10.330Z,5.50
2018-12-08T02:30:10.318Z,6.10
2018-12-08T02:31:10.302Z,9.80
2018-12-08T02:32:10.294Z,7.50
2018-12-08T02:33:10.291Z,5.90
2018-12-08T02:34:10.270Z,8.10
2018-12-08T02:35:10.379Z,6.80
2018-12-08T02:36:10.246Z,10.00
2018-12-08T02:37:10.235Z,4.80
2018-12-08T02:38:10.235Z,5.70
2018-12-08T02:39:10.214Z,8.80
2018-12-08T02:40:10.211Z,8.60
2018-12-08T02:41:10.191Z,8.70
2018-12-08T02:42:10.178Z,7.10
2018-12-08T02:43:10.182Z,7.70
2018-12-08T02:44:10.157Z,8.70
2018-12-08T02:45:10.146Z,5.10
2018-12-08T02:46:10.141Z,4.90
2018-12-08T02:47:10.122Z,7.50
2018-12-08T02:48:10.120Z,8.30
2018-12-08T02:49:10.114Z,8.10
2018-12-08T02:50:10.087Z,6.50
2018-12-08T02:51:10.078Z,7.90
2018-12-08T02:52:10.083Z,6.90
2018-12-08T02:53:10.063Z,8.40
2018-12-08T02:54:10.043Z,9.30
2018-12-08T02:55:10.033Z,5.50
2018-12-08T02:56:10.020Z,8.60
2018-12-08T02:57:10.012Z,7.70
2018-12-08T02:58:10.011Z,12.00
2018-12-08T02:59:09.988Z,10.90
2018-12-08T03:00:09.974Z,6.50
2018-12-08T03:01:09.962Z,9.80
2018-12-08T03:02:09.950Z,8.90
2018-12-08T03:03:09.983Z,5.60
2018-12-08T03:04:09.934Z,8.30
2018-12-08T03:05:09.916Z,7.10
2018-12-08T03:06:09.905Z,7.10
2018-12-08T03:07:09.895Z,7.90
2018-12-08T03:08:09.883Z,5.80
2018-12-08T03:09:09.885Z,7.50
2018-12-08T03:10:09.861Z,5.90
2018-12-08T03:11:09.850Z,6.70
2018-12-08T03:12:09.843Z,5.20
2018-12-08T03:13:09.827Z,5.40
2018-12-08T03:14:09.827Z,6.40
2018-12-08T03:15:09.805Z,5.60
2018-12-08T03:16:09.792Z,6.10
2018-12-08T03:17:09.785Z,11.00
2018-12-08T03:18:09.769Z,7.10
2018-12-08T03:19:09.771Z,8.00
2018-12-08T03:20:09.748Z,6.20
2018-12-08T03:21:09.736Z,8.80
2018-12-08T03:22:09.723Z,8.10
2018-12-08T03:23:09.713Z,8.60
2018-12-08T03:24:09.715Z,14.10
2018-12-08T03:25:09.692Z,7.60
2018-12-08T03:26:16.704Z,9.90
2018-12-08T03:27:09.671Z,10.30
2018-12-08T03:28:16.685Z,5.80
2018-12-08T03:29:16.684Z,8.40
2018-12-08T03:30:16.662Z,9.50
2018-12-08T03:31:16.654Z,7.50
2018-12-08T03:32:09.618Z,9.60
2018-12-08T03:33:09.601Z,6.90
2018-12-08T03:34:16.781Z,4.90
2018-12-08T03:35:09.583Z,7.70
2018-12-08T03:36:09.569Z,7.50
2018-12-08T03:37:09.563Z,7.70
2018-12-08T03:38:09.545Z,7.60
2018-12-08T03:39:09.545Z,6.20
2018-12-08T03:40:09.523Z,6.00
2018-12-08T03:41:09.510Z,6.50
2018-12-08T03:42:09.500Z,7.30
2018-12-08T03:43:09.489Z,6.90
2018-12-08T03:44:16.520Z,9.00
2018-12-08T03:45:16.497Z,8.50
2018-12-08T03:46:16.483Z,10.40
2018-12-08T03:47:16.468Z,7.90
2018-12-08T03:48:09.440Z,5.90
2018-12-08T03:49:09.419Z,9.90
2018-12-08T03:50:09.419Z,6.10
2018-12-08T03:51:09.397Z,5.30
2018-12-08T03:52:09.385Z,6.80
2018-12-08T03:53:09.376Z,10.20
2018-12-08T03:54:09.373Z,7.60
2018-12-08T03:55:09.361Z,8.30
2018-12-08T03:56:09.339Z,8.70
2018-12-08T03:57:16.365Z,7.00
2018-12-08T03:58:16.344Z,8.50
2018-12-08T03:59:17.321Z,8.00
2018-12-08T04:00:16.339Z,5.90
2018-12-08T04:01:16.305Z,5.50
2018-12-08T04:02:09.277Z,8.10
2018-12-08T04:03:16.300Z,6.90
2018-12-08T04:04:16.275Z,7.00
2018-12-08T04:05:09.253Z,6.90
2018-12-08T04:06:09.301Z,5.70
2018-12-08T04:07:09.214Z,5.30
2018-12-08T04:08:09.203Z,8.10
2018-12-08T04:09:09.195Z,7.20
2018-12-08T04:10:09.226Z,6.50
2018-12-08T04:11:16.198Z,8.20
2018-12-08T04:12:16.182Z,7.00
2018-12-08T04:13:09.147Z,5.40
2018-12-08T04:14:09.141Z,6.30
2018-12-08T04:15:16.186Z,6.60
2018-12-08T04:16:16.140Z,6.90
2018-12-08T04:17:09.102Z,6.80
2018-12-08T04:18:16.114Z,8.60
2018-12-08T04:19:16.109Z,7.10
2018-12-08T04:20:16.404Z,6.30
2018-12-08T04:21:16.096Z,8.10
2018-12-08T04:22:09.050Z,9.60
2018-12-08T04:23:09.032Z,7.70
2018-12-08T04:24:16.057Z,6.70
2018-12-08T04:25:09.011Z,5.50
2018-12-08T04:26:16.039Z,9.60
2018-12-08T04:27:16.010Z,6.80
2018-12-08T04:28:16.003Z,8.60
2018-12-08T04:29:15.986Z,5.50
2018-12-08T04:30:08.957Z,9.00
2018-12-08T04:31:15.983Z,7.90
2018-12-08T04:32:15.961Z,8.90
2018-12-08T04:33:08.919Z,6.70
2018-12-08T04:34:15.940Z,6.40
2018-12-08T04:35:08.899Z,8.60
2018-12-08T04:36:08.899Z,6.80
2018-12-08T04:37:08.871Z,9.00
2018-12-08T04:38:08.870Z,6.30
2018-12-08T04:39:08.849Z,8.60
2018-12-08T04:40:08.837Z,7.80
2018-12-08T04:41:08.840Z,5.50
2018-12-08T04:42:08.814Z,5.30
2018-12-08T04:43:08.807Z,7.20
2018-12-08T04:44:08.794Z,6.10
2018-12-08T04:45:08.784Z,6.00
2018-12-08T04:46:08.781Z,9.60
2018-12-08T04:47:08.758Z,6.80
2018-12-08T04:48:08.747Z,6.60
2018-12-08T04:49:08.740Z,6.00
2018-12-08T04:50:08.727Z,7.60
2018-12-08T04:51:08.731Z,6.80
2018-12-08T04:52:08.702Z,7.30
2018-12-08T04:53:08.693Z,7.20
2018-12-08T04:54:08.682Z,5.00
2018-12-08T04:55:08.670Z,7.70
2018-12-08T04:56:08.670Z,7.40
2018-12-08T04:57:08.646Z,4.80
2018-12-08T04:58:08.646Z,8.00
2018-12-08T04:59:08.624Z,7.00
2018-12-08T05:00:08.611Z,9.00
2018-12-08T05:01:08.621Z,4.70
2018-12-08T05:02:08.591Z,5.80
2018-12-08T05:03:08.578Z,5.90
2018-12-08T05:04:08.567Z,10.30
2018-12-08T05:05:08.557Z,6.00
2018-12-08T05:06:08.555Z,6.50
2018-12-08T05:07:08.534Z,6.50
2018-12-08T05:08:08.522Z,5.90
2018-12-08T05:09:08.509Z,5.10
2018-12-08T05:10:08.499Z,9.70
2018-12-08T05:11:08.499Z,7.40
2018-12-08T05:12:08.493Z,7.40
2018-12-08T05:13:08.465Z,6.60
2018-12-08T05:14:08.456Z,8.10
2018-12-08T05:15:08.442Z,7.10
2018-12-08T05:16:08.442Z,6.20
2018-12-08T05:17:08.422Z,5.10
2018-12-08T05:18:08.410Z,9.00
2018-12-08T05:19:08.397Z,8.00
2018-12-08T05:20:08.386Z,8.20
2018-12-08T05:21:08.387Z,6.50
2018-12-08T05:22:09.356Z,9.00
2018-12-08T05:23:08.353Z,5.40
2018-12-08T05:24:08.343Z,5.60
2018-12-08T05:25:08.330Z,8.10
2018-12-08T05:26:08.330Z,6.60
2018-12-08T05:27:08.309Z,5.90
2018-12-08T05:28:08.299Z,6.90
2018-12-08T05:29:08.293Z,5.70
2018-12-08T05:30:08.274Z,7.50
2018-12-08T05:31:08.307Z,3.90
2018-12-08T05:32:08.251Z,5.40
2018-12-08T05:33:08.242Z,9.10
2018-12-08T05:34:08.235Z,4.90
2018-12-08T05:35:08.217Z,7.30
2018-12-08T05:36:08.209Z,7.90
2018-12-08T05:37:08.207Z,5.60
2018-12-08T05:38:08.184Z,6.50
2018-12-08T05:39:08.175Z,5.10
2018-12-08T05:40:08.164Z,4.50
2018-12-08T05:41:08.150Z,7.60
2018-12-08T05:42:08.150Z,5.50
2018-12-08T05:43:08.130Z,6.40
2018-12-08T05:44:08.116Z,8.00
2018-12-08T05:45:08.107Z,7.10
2018-12-08T05:46:08.094Z,8.10
2018-12-08T05:47:08.093Z,6.90
2018-12-08T05:48:08.072Z,9.40
2018-12-08T05:49:08.065Z,8.10
2018-12-08T05:50:08.055Z,5.00
2018-12-08T05:51:08.038Z,6.00
2018-12-08T05:52:08.039Z,7.10
2018-12-08T05:53:08.015Z,10.70
2018-12-08T05:54:08.007Z,8.10
2018-12-08T05:55:07.996Z,7.50
2018-12-08T05:56:07.982Z,6.00
2018-12-08T05:57:07.988Z,5.80
2018-12-08T05:58:07.959Z,6.30
2018-12-08T05:59:07.948Z,7.10
2018-12-08T06:00:07.937Z,5.20
2018-12-08T06:01:07.929Z,5.10
2018-12-08T06:02:08.371Z,11.00
2018-12-08T06:03:07.902Z,7.50
2018-12-08T06:04:07.893Z,7.00
2018-12-08T06:05:07.881Z,5.80
2018-12-08T06:06:07.868Z,7.10
2018-12-08T06:07:07.868Z,9.00
2018-12-08T06:08:07.848Z,4.70
2018-12-08T06:09:07.836Z,7.00
2018-12-08T06:10:07.824Z,7.10
2018-12-08T06:11:07.813Z,7.30
2018-12-08T06:12:07.927Z,5.70
2018-12-08T06:13:07.793Z,6.30
2018-12-08T06:14:07.778Z,5.90
2018-12-08T06:15:07.767Z,5.90
2018-12-08T06:16:07.756Z,7.80
2018-12-08T06:17:07.759Z,8.00
2018-12-08T06:18:07.741Z,5.80
2018-12-08T06:19:07.739Z,4.80
2018-12-08T06:20:07.712Z,6.90
2018-12-08T06:21:07.699Z,4.90
2018-12-08T06:22:07.700Z,7.10
2018-12-08T06:23:07.679Z,6.90
2018-12-08T06:24:07.668Z,7.50
2018-12-08T06:25:07.655Z,7.50
2018-12-08T06:26:07.644Z,6.60
2018-12-08T06:27:07.643Z,6.90
2018-12-08T06:28:07.623Z,6.50
2018-12-08T06:29:07.613Z,7.40
2018-12-08T06:30:07.597Z,7.30
2018-12-08T06:31:07.594Z,8.30
2018-12-08T06:32:07.586Z,5.40
2018-12-08T06:33:07.566Z,5.90
2018-12-08T06:34:07.554Z,8.50
2018-12-08T06:35:07.547Z,5.80
2018-12-08T06:36:07.532Z,9.00
2018-12-08T06:37:07.565Z,7.40
2018-12-08T06:38:07.510Z,6.00
2018-12-08T06:39:07.496Z,6.30
2018-12-08T06:40:07.486Z,7.40
2018-12-08T06:41:07.485Z,7.10
2018-12-08T06:42:07.466Z,8.00
2018-12-08T06:43:07.462Z,9.50
2018-12-08T06:44:07.441Z,6.50
2018-12-08T06:45:07.432Z,5.70
2018-12-08T06:46:08.361Z,6.10
2018-12-08T06:47:07.405Z,6.00
2018-12-08T06:48:07.408Z,6.80
2018-12-08T06:49:07.383Z,7.20
2018-12-08T06:50:07.375Z,6.00
2018-12-08T06:51:07.365Z,4.70
2018-12-08T06:52:07.355Z,8.50
2018-12-08T06:53:07.352Z,6.50
2018-12-08T06:54:07.328Z,6.80
2018-12-08T06:55:07.315Z,7.10
2018-12-08T06:56:07.305Z,5.00
2018-12-08T06:57:07.297Z,5.80
2018-12-08T06:58:07.299Z,9.00
2018-12-08T06:59:07.270Z,5.20
2018-12-08T07:00:07.266Z,6.00
2018-12-08T07:01:07.250Z,6.10
2018-12-08T07:02:07.237Z,6.90
2018-12-08T07:03:07.238Z,7.20
2018-12-08T07:04:07.217Z,7.00
2018-12-08T07:05:07.202Z,7.30
2018-12-08T07:06:07.190Z,6.50
2018-12-08T07:07:07.180Z,7.40
2018-12-08T07:08:07.179Z,6.30
2018-12-08T07:09:07.171Z,6.50
2018-12-08T07:10:07.145Z,5.80
2018-12-08T07:11:07.138Z,8.00
2018-12-08T07:12:07.124Z,6.20
2018-12-08T07:13:07.130Z,8.00
2018-12-08T07:14:07.100Z,7.40
2018-12-08T07:15:07.088Z,5.90
2018-12-08T07:16:07.076Z,6.70
2018-12-08T07:17:07.065Z,7.80
2018-12-08T07:18:07.065Z,8.00
2018-12-08T07:19:07.045Z,9.60
2018-12-08T07:20:07.039Z,7.30
2018-12-08T07:21:07.019Z,7.30
2018-12-08T07:22:07.010Z,7.00
2018-12-08T07:23:07.009Z,6.70
2018-12-08T07:24:06.986Z,6.00
2018-12-08T07:25:06.976Z,5.60
2018-12-08T07:26:06.963Z,5.90
2018-12-08T07:27:06.951Z,6.90
2018-12-08T07:28:06.955Z,4.70
2018-12-08T07:29:06.930Z,4.00
2018-12-08T07:30:06.920Z,6.60
2018-12-08T07:31:06.917Z,5.90
2018-12-08T07:32:06.901Z,7.40
2018-12-08T07:33:06.895Z,7.00
2018-12-08T07:34:06.872Z,8.20
2018-12-08T07:35:06.861Z,6.80
2018-12-08T07:36:06.856Z,6.20
2018-12-08T07:37:06.837Z,7.50
2018-12-08T07:38:06.840Z,4.80
2018-12-08T07:39:06.818Z,5.00
2018-12-08T07:40:06.807Z,6.70
2018-12-08T07:41:06.793Z,6.00
2018-12-08T07:42:06.835Z,6.00
2018-12-08T07:43:06.782Z,4.40
2018-12-08T07:44:06.757Z,7.20
2018-12-08T07:45:06.747Z,3.20
2018-12-08T07:46:06.735Z,7.50
2018-12-08T07:47:06.732Z,5.70
2018-12-08T07:48:06.726Z,3.70
2018-12-08T07:49:06.700Z,6.40
2018-12-08T07:50:06.689Z,6.20
2018-12-08T07:51:06.677Z,7.20
2018-12-08T07:52:06.666Z,5.40
2018-12-08T07:53:06.666Z,6.30
2018-12-08T07:54:06.644Z,7.70
2018-12-08T07:55:06.631Z,5.60
2018-12-08T07:56:06.619Z,5.80
2018-12-08T07:57:06.608Z,6.10
2018-12-08T07:58:06.640Z,8.50
2018-12-08T07:59:06.587Z,8.50
2018-12-08T08:00:06.577Z,4.70
2018-12-08T08:01:06.564Z,5.80
2018-12-08T08:02:06.556Z,3.60
2018-12-08T08:03:06.545Z,4.90
2018-12-08T08:04:06.541Z,4.30
2018-12-08T08:05:06.520Z,7.80
2018-12-08T08:06:06.506Z,5.70
2018-12-08T08:07:06.500Z,5.80
2018-12-08T08:08:06.482Z,5.30
2018-12-08T08:09:06.482Z,5.40
2018-12-08T08:10:06.468Z,5.90
2018-12-08T08:11:06.448Z,6.00
2018-12-08T08:12:06.438Z,6.20
2018-12-08T08:13:06.426Z,6.80
2018-12-08T08:14:06.426Z,3.50
2018-12-08T08:15:06.402Z,5.50
2018-12-08T08:16:06.393Z,5.70
2018-12-08T08:17:06.379Z,7.50
2018-12-08T08:18:06.369Z,6.20
2018-12-08T08:19:06.380Z,7.00
2018-12-08T08:20:06.346Z,4.90
2018-12-08T08:21:06.347Z,5.30
2018-12-08T08:22:06.326Z,4.20
2018-12-08T08:23:06.310Z,3.70
2018-12-08T08:24:06.311Z,2.80
2018-12-08T08:25:06.288Z,4.10
2018-12-08T08:26:06.292Z,2.70
2018-12-08T08:27:06.268Z,5.80
2018-12-08T08:28:06.255Z,5.60
2018-12-08T08:29:06.255Z,4.40
2018-12-08T08:30:06.229Z,5.50
2018-12-08T08:31:06.218Z,4.20
2018-12-08T08:32:06.213Z,4.20
2018-12-08T08:33:06.196Z,3.20
2018-12-08T08:34:06.195Z,4.40
2018-12-08T08:35:06.171Z,3.60
2018-12-08T08:36:06.163Z,4.70
2018-12-08T08:37:06.150Z,4.30
2018-12-08T08:38:06.139Z,4.30
2018-12-08T08:39:06.150Z,4.80
2018-12-08T08:40:06.119Z,4.50
2018-12-08T08:41:06.106Z,4.10
2018-12-08T08:42:06.094Z,5.90
2018-12-08T08:43:06.089Z,4.50
2018-12-08T08:44:06.084Z,4.80
2018-12-08T08:45:06.063Z,4.30
2018-12-08T08:46:06.053Z,5.90
2018-12-08T08:47:06.037Z,6.00
2018-12-08T08:48:06.034Z,4.80
2018-12-08T08:49:06.027Z,3.80
2018-12-08T08:50:06.004Z,3.60
2018-12-08T08:51:05.991Z,3.70
2018-12-08T08:52:05.980Z,4.40
2018-12-08T08:53:05.968Z,4.70
2018-12-08T08:54:05.970Z,3.30
2018-12-08T08:55:05.948Z,6.00
2018-12-08T08:56:05.934Z,3.60
2018-12-08T08:57:05.924Z,3.10
2018-12-08T08:58:05.911Z,5.20
2018-12-08T08:59:05.910Z,5.50
2018-12-08T09:00:05.890Z,1.80
2018-12-08T09:01:05.876Z,4.90
2018-12-08T09:02:05.866Z,3.40
2018-12-08T09:03:05.857Z,3.20
2018-12-08T09:04:05.873Z,4.20
2018-12-08T09:05:05.833Z,5.20
2018-12-08T09:06:05.819Z,4.00
2018-12-08T09:07:05.806Z,4.70
2018-12-08T09:08:05.797Z,3.20
2018-12-08T09:09:05.785Z,4.80
2018-12-08T09:10:05.788Z,4.80
2018-12-08T09:11:05.764Z,3.00
2018-12-08T09:12:05.750Z,4.70
2018-12-08T09:13:05.740Z,3.90
2018-12-08T09:14:13.032Z,4.50
2018-12-08T09:15:06.730Z,3.90
2018-12-08T09:16:05.704Z,4.20
2018-12-08T09:17:05.696Z,3.30
2018-12-08T09:18:05.681Z,3.10
2018-12-08T09:19:05.668Z,2.80
2018-12-08T09:20:05.673Z,2.50
2018-12-08T09:21:05.647Z,3.00
2018-12-08T09:22:05.634Z,3.60
2018-12-08T09:23:05.625Z,3.30
2018-12-08T09:24:05.611Z,3.80
2018-12-08T09:25:05.612Z,4.10
2018-12-08T09:26:05.588Z,4.10
2018-12-08T09:27:05.578Z,6.20
2018-12-08T09:28:05.567Z,3.70
2018-12-08T09:29:05.554Z,3.20
2018-12-08T09:30:05.555Z,3.60
2018-12-08T09:31:05.533Z,4.80
2018-12-08T09:32:05.522Z,4.00
2018-12-08T09:33:05.515Z,3.30
2018-12-08T09:34:05.499Z,4.10
2018-12-08T09:35:05.561Z,5.10
2018-12-08T09:36:05.477Z,3.20
2018-12-08T09:37:05.467Z,3.50
2018-12-08T09:38:06.375Z,7.50
2018-12-08T09:39:05.442Z,4.30
2018-12-08T09:40:05.460Z,4.80
2018-12-08T09:41:05.421Z,6.20
2018-12-08T09:42:05.408Z,4.30
2018-12-08T09:43:05.397Z,6.40
2018-12-08T09:44:05.391Z,3.00
2018-12-08T09:45:05.375Z,4.00
2018-12-08T09:46:05.375Z,4.60
2018-12-08T09:47:05.464Z,4.50
2018-12-08T09:48:05.339Z,5.60
2018-12-08T09:49:05.428Z,4.60
2018-12-08T09:50:05.319Z,5.00
2018-12-08T09:51:05.317Z,4.10
2018-12-08T09:52:05.295Z,3.60
2018-12-08T09:53:05.286Z,4.10
2018-12-08T09:54:05.272Z,4.00
2018-12-08T09:55:05.264Z,5.10
2018-12-08T09:56:05.265Z,4.60
2018-12-08T09:57:05.242Z,4.00
2018-12-08T09:58:05.227Z,6.90
2018-12-08T09:59:05.219Z,8.40
2018-12-08T10:00:05.209Z,3.90
2018-12-08T10:01:05.204Z,2.30
2018-12-08T10:02:05.182Z,3.40
2018-12-08T10:03:05.170Z,3.60
2018-12-08T10:04:05.160Z,1.90
2018-12-08T10:05:05.147Z,4.00
2018-12-08T10:06:05.147Z,4.20
2018-12-08T10:07:05.126Z,4.40
2018-12-08T10:08:05.122Z,3.50
2018-12-08T10:09:05.102Z,4.50
2018-12-08T10:10:05.092Z,5.40
2018-12-08T10:11:05.097Z,3.80
2018-12-08T10:12:05.074Z,4.20
2018-12-08T10:13:05.062Z,4.50
2018-12-08T10:14:05.046Z,5.10
2018-12-08T10:15:05.035Z,3.80
2018-12-08T10:16:05.041Z,4.00
2018-12-08T10:17:05.023Z,3.50
2018-12-08T10:18:05.001Z,5.20
2018-12-08T10:19:04.989Z,3.60
2018-12-08T10:20:04.980Z,4.10
2018-12-08T10:21:04.979Z,3.00
2018-12-08T10:22:04.963Z,4.90
2018-12-08T10:23:04.948Z,3.80
2018-12-08T10:24:04.934Z,4.20
2018-12-08T10:25:04.923Z,3.80
2018-12-08T10:26:04.925Z,3.80
2018-12-08T10:27:04.903Z,3.30
2018-12-08T10:28:04.893Z,3.70
2018-12-08T10:29:04.879Z,5.50
2018-12-08T10:30:04.869Z,4.90
2018-12-08T10:31:04.858Z,4.10
2018-12-08T10:32:04.858Z,4.10
2018-12-08T10:33:04.833Z,3.80
2018-12-08T10:34:04.825Z,4.30
2018-12-08T10:35:04.810Z,2.60
2018-12-08T10:36:04.800Z,3.50
2018-12-08T10:37:04.795Z,2.40
2018-12-08T10:38:04.786Z,4.60
2018-12-08T10:39:04.766Z,5.00
2018-12-08T10:40:04.758Z,4.30
2018-12-08T10:41:04.742Z,3.00
2018-12-08T10:42:04.746Z,4.80
2018-12-08T10:43:04.726Z,3.60
2018-12-08T10:44:04.709Z,3.40
2018-12-08T10:45:05.380Z,3.60
2018-12-08T10:46:04.685Z,4.50
2018-12-08T10:47:04.686Z,4.90
2018-12-08T10:48:04.662Z,5.50
2018-12-08T10:49:04.657Z,2.50
2018-12-08T10:50:04.743Z,5.10
2018-12-08T10:51:04.632Z,3.80
2018-12-08T10:52:04.634Z,2.80
2018-12-08T10:53:04.609Z,3.40
2018-12-08T10:54:04.650Z,3.70
2018-12-08T10:55:04.587Z,3.60
2018-12-08T10:56:04.575Z,4.30
2018-12-08T10:57:04.580Z,4.50
2018-12-08T10:58:04.550Z,3.00
2018-12-08T10:59:04.538Z,3.20
2018-12-08T11:00:04.528Z,4.00
2018-12-08T11:01:04.515Z,3.50
2018-12-08T11:02:04.517Z,4.80
2018-12-08T11:03:04.492Z,3.40
2018-12-08T11:04:04.484Z,3.20
2018-12-08T11:05:04.468Z,2.60
2018-12-08T11:06:04.459Z,2.80
2018-12-08T11:07:04.486Z,4.10
2018-12-08T11:08:04.444Z,3.70
2018-12-08T11:09:04.506Z,4.00
2018-12-08T11:10:04.419Z,5.10
2018-12-08T11:11:04.405Z,4.40
2018-12-08T11:12:04.391Z,2.20
2018-12-08T11:13:04.393Z,4.30
2018-12-08T11:14:04.370Z,4.40
2018-12-08T11:15:04.357Z,3.50
2018-12-08T11:16:04.345Z,4.40
2018-12-08T11:17:04.334Z,2.60
2018-12-08T11:18:04.337Z,5.20
2018-12-08T11:19:04.390Z,4.80
2018-12-08T11:20:04.300Z,4.70
2018-12-08T11:21:04.290Z,4.50
2018-12-08T11:22:04.277Z,4.40
2018-12-08T11:23:04.279Z,2.50
2018-12-08T11:24:04.254Z,4.00
2018-12-08T11:25:04.247Z,3.20
2018-12-08T11:26:04.234Z,5.10
2018-12-08T11:27:04.221Z,3.50
2018-12-08T11:28:04.220Z,2.40
2018-12-08T11:29:04.198Z,3.80
2018-12-08T11:30:04.188Z,4.30
2018-12-08T11:31:04.176Z,2.40
2018-12-08T11:32:04.165Z,3.10
2018-12-08T11:33:04.165Z,3.30
2018-12-08T11:34:04.141Z,4.20
2018-12-08T11:35:04.889Z,2.70
2018-12-08T11:36:04.120Z,5.20
2018-12-08T11:37:04.110Z,4.30
2018-12-08T11:38:04.109Z,3.90
2018-12-08T11:39:04.086Z,3.80
2018-12-08T11:40:04.077Z,3.10
2018-12-08T11:41:04.062Z,3.40
2018-12-08T11:42:04.052Z,4.30
2018-12-08T11:43:04.054Z,5.90
2018-12-08T11:44:04.031Z,6.00
2018-12-08T11:45:04.018Z,4.00
2018-12-08T11:46:04.007Z,5.10
2018-12-08T11:47:04.001Z,4.90
2018-12-08T11:48:04.000Z,5.50
2018-12-08T11:49:03.973Z,5.50
2018-12-08T11:50:03.961Z,3.70
2018-12-08T11:51:03.950Z,2.30
2018-12-08T11:52:03.946Z,3.30
2018-12-08T11:53:03.941Z,6.20
2018-12-08T11:54:03.917Z,3.50
2018-12-08T11:55:03.904Z,3.30
2018-12-08T11:56:03.894Z,3.00
2018-12-08T11:57:03.882Z,2.60
2018-12-08T11:58:03.918Z,2.80
2018-12-08T11:59:03.859Z,4.60
2018-12-08T12:00:03.849Z,3.10
2018-12-08T12:01:03.840Z,3.20
2018-12-08T12:02:03.827Z,2.30
2018-12-08T12:03:04.387Z,2.70
2018-12-08T12:04:03.813Z,3.70
2018-12-08T12:05:03.800Z,2.70
2018-12-08T12:06:03.782Z,4.90
2018-12-08T12:07:03.770Z,3.40
2018-12-08T12:08:03.759Z,5.90
2018-12-08T12:09:03.764Z,2.40
2018-12-08T12:10:03.735Z,2.30
2018-12-08T12:11:03.729Z,2.20
2018-12-08T12:12:03.713Z,1.50
2018-12-08T12:13:03.706Z,2.30
2018-12-08T12:14:03.702Z,2.90
2018-12-08T12:15:03.679Z,2.00
2018-12-08T12:16:03.669Z,2.50
2018-12-08T12:17:03.666Z,3.10
2018-12-08T12:18:03.645Z,1.50
2018-12-08T12:19:03.646Z,1.50
2018-12-08T12:20:03.625Z,1.90
2018-12-08T12:21:03.613Z,2.70
2018-12-08T12:22:03.600Z,2.30
2018-12-08T12:23:03.589Z,4.00
2018-12-08T12:24:03.589Z,3.10
2018-12-08T12:25:03.567Z,2.40
2018-12-08T12:26:03.563Z,3.20
2018-12-08T12:27:03.545Z,5.30
2018-12-08T12:28:03.533Z,3.00
2018-12-08T12:29:03.538Z,2.50
2018-12-08T12:30:03.511Z,2.00
2018-12-08T12:31:03.505Z,4.70
2018-12-08T12:32:03.488Z,1.80
2018-12-08T12:33:03.475Z,3.50
2018-12-08T12:34:03.475Z,2.20
2018-12-08T12:35:03.453Z,6.00
2018-12-08T12:36:03.441Z,2.70
2018-12-08T12:37:03.429Z,3.90
2018-12-08T12:38:03.418Z,2.10
2018-12-08T12:39:03.454Z,3.10
2018-12-08T12:40:03.400Z,2.30
2018-12-08T12:41:03.385Z,2.80
2018-12-08T12:42:04.520Z,3.00
2018-12-08T12:43:03.366Z,4.00
2018-12-08T12:44:03.352Z,2.70
2018-12-08T12:45:03.354Z,3.40
2018-12-08T12:46:03.328Z,3.00
2018-12-08T12:47:03.318Z,3.40
2018-12-08T12:48:03.306Z,3.30
2018-12-08T12:49:03.296Z,2.30
2018-12-08T12:50:03.297Z,2.00
2018-12-08T12:51:03.272Z,2.00
2018-12-08T12:52:03.264Z,1.80
2018-12-08T12:53:03.250Z,3.00
2018-12-08T12:54:03.255Z,2.00
2018-12-08T12:55:03.238Z,3.20
2018-12-08T12:56:03.216Z,3.00
2018-12-08T12:57:03.204Z,2.30
2018-12-08T12:58:03.194Z,2.40
2018-12-08T12:59:03.182Z,3.10
2018-12-08T13:00:03.186Z,2.50
2018-12-08T13:01:03.159Z,1.80
2018-12-08T13:02:03.149Z,3.20
2018-12-08T13:03:03.139Z,3.10
2018-12-08T13:04:03.125Z,2.00
2018-12-08T13:05:03.130Z,1.90
2018-12-08T13:06:03.106Z,1.60
2018-12-08T13:07:03.094Z,3.40
2018-12-08T13:08:03.081Z,2.20
2018-12-08T13:09:03.069Z,2.30
2018-12-08T13:10:03.069Z,3.20
2018-12-08T13:11:03.050Z,2.70
2018-12-08T13:12:03.035Z,3.10
2018-12-08T13:13:03.027Z,2.20
2018-12-08T13:14:03.015Z,3.40
2018-12-08T13:15:03.036Z,3.30
2018-12-08T13:16:02.991Z,3.30
2018-12-08T13:17:02.979Z,3.20